Terminal Aerodrome Forecast
Issued by NWS Goodland, KS

Home | Current Version | Previous Version | Text Only | Print | Product List | Glossary On
Versions: 1 2 3 4 5 6 7 8 9 10 11 12 13 14 15
611
FTUS43 KGLD 271720
TAFGLD
TAF
KGLD 271720Z 2718/2818 20012KT P6SM SCT230
      TEMPO 2720/2723 20017G25KT
     FM280600 23013KT P6SM SCT120 SCT250
     FM280800 26010KT P6SM SCT110 SCT250
     FM280900 29010KT P6SM SCT110 SCT250
     FM281100 32008KT P6SM FEW050 SCT100
     FM281500 35012KT P6SM BKN080
     FM281700 36015G23KT P6SM BKN060=

USA.gov is the U.S. government's official web portal to all federal, state and local government web resources and services.